Time;durP1;ratioP1;P1;durP2;ratioP2;P2;SDS_P1;SDS_P2;PMS_P1;PMS_P2;Temp;Humidity;BMP_temperature;BMP_pressure;BME280_temperature;BME280_humidity;BME280_pressure;Samples;Min_cycle;Max_cycle;Signal;HPM_P1;HPM_P2
2021/10/31 00:00:18;;;;;;;27.53;14.70;;;;;;;;;;5017516;28;20212;-89
2021/10/31 00:02:44;;;;;;;27.93;14.90;;;;;;;;;;5017226;28;20173;-89
2021/10/31 00:05:10;;;;;;;30.37;15.50;;;9.10;99.90;;;;;;5017179;28;20214;-89
2021/10/31 00:07:37;;;;;;;32.40;16.17;;;;;;;;;;5017365;28;20169;-89
2021/10/31 00:10:04;;;;;;;31.67;16.20;;;9.10;99.90;;;;;;5017022;28;20770;-88
2021/10/31 00:12:30;;;;;;;39.07;17.13;;;;;;;;;;5034830;28;20172;-88
2021/10/31 00:14:56;;;;;;;34.53;16.63;;;;;;;;;;5016192;28;20224;-88
2021/10/31 00:17:23;;;;;;;36.60;16.30;;;;;;;;;;4992269;28;20181;-88
2021/10/31 00:19:53;;;;;;;35.80;17.40;;;;;;;;;;5034471;28;20219;-88
2021/10/31 00:22:20;;;;;;;36.07;18.33;;;9.00;99.90;;;;;;5016437;28;20180;-89
2021/10/31 00:24:46;;;;;;;28.80;15.40;;;;;;;;;;5016582;28;20180;-88
2021/10/31 00:27:12;;;;;;;30.53;15.03;;;;;;;;;;5034534;28;20185;-88
2021/10/31 00:29:38;;;;;;;31.30;15.73;;;;;;;;;;5016998;28;20192;-88
2021/10/31 00:32:07;;;;;;;32.17;15.00;;;9.10;99.90;;;;;;5034437;28;20184;-88
2021/10/31 00:34:33;;;;;;;34.60;17.00;;;;;;;;;;5016764;28;20629;-88
2021/10/31 00:36:59;;;;;;;31.27;15.80;;;;;;;;;;5017289;28;20200;-88
2021/10/31 00:39:29;;;;;;;31.17;14.97;;;;;;;;;;5026692;28;20185;-90
2021/10/31 00:41:55;;;;;;;31.17;15.97;;;;;;;;;;5026914;28;20180;-89
2021/10/31 00:44:22;;;;;;;29.57;15.53;;;;;;;;;;5016624;28;20480;-87
2021/10/31 00:46:48;;;;;;;30.47;14.43;;;;;;;;;;5016321;28;20231;-90
2021/10/31 00:49:17;;;;;;;30.60;15.67;;;8.90;99.90;;;;;;5016564;28;20633;-89
2021/10/31 00:51:43;;;;;;;31.57;16.73;;;;;;;;;;5003934;28;20227;-88
2021/10/31 00:54:09;;;;;;;34.33;17.13;;;;;;;;;;5023661;28;20203;-90
2021/10/31 00:56:35;;;;;;;39.73;18.03;;;;;;;;;;5024357;28;20187;-88
2021/10/31 00:59:01;;;;;;;43.37;17.60;;;;;;;;;;5030909;28;20180;-87
2021/10/31 01:01:29;;;;;;;36.93;18.40;;;;;;;;;;5030573;28;20189;-86
2021/10/31 01:04:01;;;;;;;40.67;18.30;;;8.90;99.90;;;;;;5025323;28;20181;-87
2021/10/31 01:06:58;;;;;;;40.77;19.17;;;11.20;99.90;;;;;;5021922;28;20196;-85
2021/10/31 01:09:36;;;;;;;34.73;17.37;;;8.70;99.90;;;;;;5021741;28;20185;-86
2021/10/31 01:12:02;;;;;;;40.37;18.47;;;;;;;;;;5022738;28;20214;-86
2021/10/31 01:14:37;;;;;;;37.93;17.23;;;8.60;99.90;;;;;;5016254;28;20608;-86
2021/10/31 01:17:27;;;;;;;40.70;19.00;;;8.60;99.90;;;;;;5013995;28;20200;-87
2021/10/31 01:20:38;;;;;;;42.27;18.80;;;8.50;99.90;;;;;;5012658;28;20312;-89
2021/10/31 01:23:04;;;;;;;41.23;18.23;;;;;;;;;;5012650;28;20203;-86
2021/10/31 01:25:54;;;;;;;37.40;18.07;;;8.30;99.90;;;;;;5012405;28;20229;-88
2021/10/31 01:28:35;;;;;;;45.40;19.13;;;8.60;99.90;;;;;;5012474;28;20185;-88
2021/10/31 01:31:27;;;;;;;37.93;18.57;;;8.30;99.90;;;;;;5012527;28;20188;-89
2021/10/31 01:34:18;;;;;;;45.77;19.33;;;8.40;99.90;;;;;;5012399;28;20194;-91
2021/10/31 01:37:04;;;;;;;40.77;19.37;;;7.10;99.90;;;;;;5012772;28;20184;-89
2021/10/31 01:39:51;;;;;;;42.23;19.33;;;8.20;99.90;;;;;;5012784;28;20584;-89
2021/10/31 01:42:33;;;;;;;32.23;18.87;;;8.10;99.90;;;;;;5012294;28;20650;-88
2021/10/31 01:45:27;;;;;;;34.80;17.67;;;8.00;99.90;;;;;;5012192;28;20182;-88
2021/10/31 01:48:28;;;;;;;46.47;19.67;;;8.00;99.90;;;;;;5012387;28;20179;-88
2021/10/31 01:50:59;;;;;;;38.47;18.87;;;7.90;99.90;;;;;;5014480;28;20650;-89
2021/10/31 01:53:59;;;;;;;35.33;17.37;;;7.90;99.90;;;;;;5012487;28;20188;-89
2021/10/31 01:56:30;;;;;;;35.93;16.43;;;8.00;99.90;;;;;;5012377;28;20173;-89
2021/10/31 01:59:04;;;;;;;31.63;17.27;;;8.20;99.90;;;;;;5012167;28;20323;-90
2021/10/31 02:01:33;;;;;;;31.70;15.83;;;8.00;99.90;;;;;;5012436;28;20630;-87
2021/10/31 02:04:03;;;;;;;29.50;15.73;;;8.00;99.90;;;;;;5011688;28;20212;-89
2021/10/31 02:06:34;;;;;;;34.10;16.13;;;8.10;99.90;;;;;;5012307;28;20205;-88
2021/10/31 02:09:11;;;;;;;42.60;19.57;;;8.20;99.90;;;;;;5012283;28;20188;-89
2021/10/31 02:11:41;;;;;;;69.97;26.40;;;8.30;99.90;;;;;;5012487;28;20169;-88
2021/10/31 02:14:15;;;;;;;67.80;27.13;;;8.30;99.90;;;;;;5011640;28;20236;-89
2021/10/31 02:16:41;;;;;;;49.03;21.77;;;8.40;99.90;;;;;;5012331;28;20189;-88
2021/10/31 02:19:16;;;;;;;39.60;18.27;;;8.40;99.90;;;;;;5011960;28;20181;-88
2021/10/31 02:21:42;;;;;;;40.63;20.50;;;;;;;;;;5015539;28;20651;-88
2021/10/31 02:24:09;;;;;;;42.87;22.07;;;8.40;99.90;;;;;;5015668;28;20246;-88
2021/10/31 02:26:39;;;;;;;54.40;24.73;;;8.40;99.90;;;;;;5015775;28;20201;-89
2021/10/31 02:29:18;;;;;;;48.33;23.10;;;8.40;99.90;;;;;;5015557;28;20543;-89
2021/10/31 02:31:44;;;;;;;49.17;22.97;;;;;;;;;;5000150;28;20597;-90
2021/10/31 02:34:16;;;;;;;38.00;18.53;;;8.30;99.90;;;;;;5015311;28;20178;-89
2021/10/31 02:36:42;;;;;;;34.90;18.00;;;;;;;;;;4999343;28;20186;-89
2021/10/31 02:39:09;;;;;;;34.50;17.70;;;8.20;99.90;;;;;;5015364;28;20177;-89
2021/10/31 02:41:37;;;;;;;42.00;18.20;;;8.10;99.90;;;;;;5000849;28;20200;-89
2021/10/31 02:44:04;;;;;;;32.17;16.77;;;;;;;;;;5017251;28;20176;-88
2021/10/31 02:46:32;;;;;;;36.73;19.57;;;8.00;99.90;;;;;;5016886;28;20308;-88
2021/10/31 02:49:01;;;;;;;40.63;19.63;;;8.00;99.90;;;;;;5021261;28;20545;-88
2021/10/31 02:52:02;;;;;;;38.30;18.80;;;8.00;99.90;;;;;;5006292;28;20242;-89
2021/10/31 02:54:51;;;;;;;30.77;16.03;;;7.90;99.90;;;;;;5010785;28;20189;-89
2021/10/31 02:57:39;;;;;;;29.27;15.67;;;8.10;99.90;;;;;;5024260;28;20272;-88
2021/10/31 03:00:07;;;;;;;27.17;15.13;;;7.80;99.90;;;;;;5040369;28;20162;-92
2021/10/31 03:02:33;;;;;;;27.80;14.80;;;7.90;99.90;;;;;;5040148;28;20204;-88
2021/10/31 03:05:06;;;;;;;25.73;13.83;;;7.90;99.90;;;;;;5040320;28;20158;-89
2021/10/31 03:07:36;;;;;;;27.70;13.80;;;8.30;99.90;;;;;;5039697;28;20168;-89
2021/10/31 03:10:03;;;;;;;25.83;14.57;;;;;;;;;;5006109;28;20205;-89
2021/10/31 03:12:39;;;;;;;25.53;14.87;;;8.00;99.90;;;;;;5022884;28;20228;-89
2021/10/31 03:15:08;;;;;;;23.17;14.07;;;8.00;99.90;;;;;;5039118;28;20224;-92
2021/10/31 03:17:36;;;;;;;25.13;13.30;;;8.00;99.90;;;;;;5040019;28;20185;-89
2021/10/31 03:20:09;;;;;;;26.43;14.60;;;;;;;;;;5040246;28;20181;-87
2021/10/31 03:22:35;;;;;;;26.17;14.70;;;;;;;;;;5026673;28;20243;-88
2021/10/31 03:25:01;;;;;;;28.57;15.50;;;;;;;;;;5015120;28;20252;-89
2021/10/31 03:27:27;;;;;;;24.23;13.93;;;;;;;;;;5014784;28;20191;-88
2021/10/31 03:29:53;;;;;;;26.90;14.43;;;;;;;;;;5014916;28;20219;-88
2021/10/31 03:32:23;;;;;;;24.47;14.03;;;8.00;99.90;;;;;;5013783;28;20173;-89
2021/10/31 03:34:51;;;;;;;31.67;13.87;;;;;;;;;;5015327;28;20607;-89
2021/10/31 03:37:17;;;;;;;27.37;14.47;;;;;;;;;;5014516;28;20181;-88
2021/10/31 03:39:48;;;;;;;23.93;13.67;;;8.00;99.90;;;;;;5014411;28;20545;-88
2021/10/31 03:42:14;;;;;;;26.30;14.20;;;;;;;;;;4998302;28;20272;-87
2021/10/31 03:44:48;;;;;;;23.23;13.43;;;;;;;;;;5015443;28;20184;-87
2021/10/31 03:47:15;;;;;;;24.97;13.33;;;8.00;99.90;;;;;;5014259;28;20611;-88
2021/10/31 03:49:41;;;;;;;25.00;12.50;;;;;;;;;;5014538;28;20173;-88
2021/10/31 03:52:12;;;;;;;23.43;13.50;;;8.10;99.90;;;;;;5014276;28;20182;-90
2021/10/31 03:55:01;;;;;;;23.13;13.20;;;8.10;99.90;;;;;;5014204;28;20170;-91
2021/10/31 03:57:27;;;;;;;23.83;12.77;;;;;;;;;;5014214;28;20566;-88
2021/10/31 03:59:54;;;;;;;30.60;16.37;;;;;;;;;;5014142;28;20182;-89
2021/10/31 04:02:22;;;;;;;36.07;18.30;;;;;;;;;;5015262;28;20264;-89
2021/10/31 04:05:15;;;;;;;;;;;;;;;;;;;;;
2021/10/31 04:07:47;;;;;;;24.27;13.37;;;8.30;99.90;;;;;;5014578;28;20305;-90
2021/10/31 04:10:16;;;;;;;21.93;13.20;;;;;;;;;;5014044;28;20265;-90
2021/10/31 04:12:42;;;;;;;24.37;13.13;;;;;;;;;;5013872;28;20177;-90
2021/10/31 04:15:51;;;;;;;27.13;15.23;;;8.20;99.90;;;;;;5013914;28;20307;-91
2021/10/31 04:18:23;;;;;;;72.87;26.27;;;8.00;99.90;;;;;;4986362;28;20212;-90
2021/10/31 04:20:51;;;;;;;277.77;84.60;;;8.00;99.90;;;;;;4998810;28;20613;-88
2021/10/31 04:23:20;;;;;;;214.13;69.63;;;;;;;;;;5013571;28;20177;-88
2021/10/31 04:25:48;;;;;;;39.67;19.57;;;;;;;;;;5013670;28;20209;-87
2021/10/31 04:28:14;;;;;;;40.67;16.17;;;;;;;;;;5013456;28;20177;-90
2021/10/31 04:30:41;;;;;;;26.13;14.60;;;;;;;;;;5013597;28;20228;-87
2021/10/31 04:33:09;;;;;;;27.17;13.57;;;8.00;99.90;;;;;;5015085;28;20177;-87
2021/10/31 04:35:35;;;;;;;27.10;13.80;;;;;;;;;;5013460;28;20189;-87
2021/10/31 04:38:13;;;;;;;22.37;13.57;;;8.00;99.90;;;;;;5014511;28;20200;-87
2021/10/31 04:40:40;;;;;;;22.53;13.10;;;;;;;;;;4998229;28;20180;-87
2021/10/31 04:43:10;;;;;;;28.90;14.50;;;;;;;;;;5013132;28;20185;-87
2021/10/31 04:45:38;;;;;;;24.30;13.53;;;7.90;99.90;;;;;;5013207;28;20717;-88
2021/10/31 04:48:04;;;;;;;25.20;13.80;;;8.30;99.90;;;;;;5013308;28;20635;-88
2021/10/31 04:50:35;;;;;;;28.43;14.83;;;;;;;;;;5013105;28;20201;-88
2021/10/31 04:53:01;;;;;;;28.00;15.37;;;;;;;;;;5013394;28;20185;-87
2021/10/31 04:55:28;;;;;;;39.90;22.23;;;;;;;;;;5014201;28;20234;-88
2021/10/31 04:57:56;;;;;;;31.67;19.50;;;;;;;;;;5012652;28;20686;-87
2021/10/31 05:00:22;;;;;;;37.87;19.43;;;;;;;;;;5012825;28;20606;-87
2021/10/31 05:02:48;;;;;;;55.47;30.03;;;;;;;;;;4996721;28;20631;-87
2021/10/31 05:05:14;;;;;;;29.17;16.80;;;;;;;;;;4996722;28;20243;-87
2021/10/31 05:07:40;;;;;;;42.47;22.93;;;;;;;;;;5012350;28;20195;-87
2021/10/31 05:10:11;;;;;;;32.73;18.93;;;7.60;99.90;;;;;;5014224;28;20184;-88
2021/10/31 05:12:37;;;;;;;44.43;20.40;;;;;;;;;;5013098;28;20181;-88
2021/10/31 05:15:03;;;;;;;38.90;22.97;;;7.50;99.90;;;;;;4996537;28;20331;-90
2021/10/31 05:17:32;;;;;;;30.67;16.73;;;;;;;;;;5012020;28;20181;-87
2021/10/31 05:19:58;;;;;;;27.30;16.93;;;;;;;;;;5012279;28;20211;-87
2021/10/31 05:22:23;;;;;;;25.43;14.90;;;7.50;99.90;;;;;;5013660;28;20619;-84
2021/10/31 05:24:52;;;;;;;26.57;16.20;;;7.50;99.90;;;;;;5012465;28;20195;-90
2021/10/31 05:27:30;;;;;;;26.20;15.20;;;7.40;99.90;;;;;;5012684;28;20213;-90
2021/10/31 05:29:56;;;;;;;32.30;17.23;;;;;;;;;;4996865;28;20189;-89
2021/10/31 05:32:22;;;;;;;26.67;15.60;;;;;;;;;;5012606;28;20367;-91
2021/10/31 05:34:50;;;;;;;26.17;15.77;;;;;;;;;;5012110;28;20204;-88
2021/10/31 05:37:16;;;;;;;27.97;15.63;;;;;;;;;;5012248;28;20185;-87
2021/10/31 05:39:42;;;;;;;29.80;15.93;;;;;;;;;;4988865;28;20243;-87
2021/10/31 05:42:08;;;;;;;29.40;15.13;;;7.60;99.90;;;;;;5002400;28;20192;-89
2021/10/31 05:44:34;;;;;;;23.47;14.10;;;;;;;;;;5011938;28;20177;-90
2021/10/31 05:47:06;;;;;;;22.87;14.60;;;7.70;99.90;;;;;;5012041;28;20213;-88
2021/10/31 05:49:35;;;;;;;23.93;13.70;;;7.80;99.90;;;;;;4992143;28;20194;-88
2021/10/31 05:52:05;;;;;;;29.53;15.03;;;7.80;99.90;;;;;;4998721;28;20185;-89
2021/10/31 05:54:31;;;;;;;24.17;13.73;;;;;;;;;;5011823;28;20173;-91
2021/10/31 05:56:57;;;;;;;25.73;14.30;;;;;;;;;;5005052;28;20286;-88
2021/10/31 05:59:23;;;;;;;23.90;13.83;;;;;;;;;;5017373;28;20181;-88
2021/10/31 06:02:00;;;;;;;22.77;13.73;;;8.10;99.90;;;;;;5015813;28;20508;-90
2021/10/31 06:04:28;;;;;;;29.67;14.53;;;;;;;;;;5014534;28;20177;-92
2021/10/31 06:07:12;;;;;;;23.23;15.07;;;8.10;99.90;;;;;;5015569;28;20251;-91
2021/10/31 06:09:38;;;;;;;29.50;14.87;;;;;;;;;;5013982;28;20165;-90
2021/10/31 06:12:07;;;;;;;25.30;13.43;;;8.40;99.90;;;;;;5009989;28;20192;-91
2021/10/31 06:14:41;;;;;;;25.40;14.10;;;8.60;99.90;;;;;;5015674;28;20233;-92
2021/10/31 06:17:10;;;;;;;27.50;14.57;;;;;;;;;;4997692;28;20174;-91
2021/10/31 06:19:38;;;;;;;36.23;14.97;;;;;;;;;;4995900;28;20269;-90
2021/10/31 06:22:05;;;;;;;24.87;14.13;;;;;;;;;;4995965;28;20264;-88
2021/10/31 06:24:36;;;;;;;29.30;14.63;;;8.70;99.90;;;;;;4999057;28;20623;-88
2021/10/31 06:27:02;;;;;;;24.23;14.23;;;;;;;;;;4998476;28;20210;-90
2021/10/31 06:29:28;;;;;;;25.10;15.07;;;;;;;;;;5008964;28;20264;-88
2021/10/31 06:31:54;;;;;;;27.20;15.33;;;;;;;;;;5015549;28;20545;-89
2021/10/31 06:34:23;;;;;;;32.67;16.40;;;;;;;;;;5015292;28;20185;-89
2021/10/31 06:36:49;;;;;;;98.10;19.30;;;;;;;;;;5014679;28;20185;-87
2021/10/31 06:39:15;;;;;;;29.80;16.27;;;;;;;;;;5015453;28;20271;-89
2021/10/31 06:41:41;;;;;;;28.30;16.83;;;;;;;;;;5014979;28;20188;-89
2021/10/31 06:44:15;;;;;;;28.00;15.37;;;8.90;99.90;;;;;;5015108;28;20185;-89
2021/10/31 06:46:41;;;;;;;28.10;15.87;;;;;;;;;;5014970;28;20205;-90
2021/10/31 06:49:09;;;;;;;30.87;15.67;;;;;;;;;;5014580;28;20189;-89
2021/10/31 06:51:35;;;;;;;32.70;17.13;;;;;;;;;;5018538;28;20256;-90
2021/10/31 06:54:01;;;;;;;28.93;15.33;;;;;;;;;;5014180;28;20250;-88
2021/10/31 06:56:31;;;;;;;30.67;15.87;;;;;;;;;;5013811;28;20647;-89
2021/10/31 06:58:59;;;;;;;27.27;15.40;;;;;;;;;;4997837;28;20284;-89
2021/10/31 07:01:25;;;;;;;26.80;15.13;;;9.10;99.90;;;;;;5015106;28;20247;-85
2021/10/31 07:03:51;;;;;;;32.67;16.10;;;;;;;;;;5014967;28;20638;-90
2021/10/31 07:06:26;;;;;;;26.33;14.60;;;9.30;99.90;;;;;;5013694;28;20235;-89
2021/10/31 07:08:53;;;;;;;23.43;13.73;;;;;;;;;;4999036;28;20653;-89
2021/10/31 07:11:18;;;;;;;25.50;13.17;;;9.60;99.90;;;;;;5016324;28;20209;-89
2021/10/31 07:13:44;;;;;;;24.13;13.93;;;10.00;99.90;;;;;;5017083;28;20263;-89
2021/10/31 07:16:10;;;;;;;22.37;13.80;;;;;;;;;;5018401;28;20253;-88
2021/10/31 07:18:36;;;;;;;24.67;13.20;;;10.10;99.90;;;;;;5018009;28;20544;-88
2021/10/31 07:21:05;;;;;;;28.43;16.10;;;10.60;99.90;;;;;;5035690;28;20188;-88
2021/10/31 07:23:34;;;;;;;23.20;14.50;;;10.90;99.90;;;;;;5018443;28;20177;-88
2021/10/31 07:26:00;;;;;;;23.70;13.13;;;10.40;99.90;;;;;;5035399;28;20211;-88
2021/10/31 07:28:28;;;;;;;26.40;14.47;;;;;;;;;;5018124;28;20196;-88
2021/10/31 07:30:55;;;;;;;24.67;14.60;;;10.50;99.90;;;;;;5017788;28;20622;-88
2021/10/31 07:33:21;;;;;;;26.10;14.63;;;10.50;99.90;;;;;;5017846;28;20180;-87
2021/10/31 07:35:48;;;;;;;23.90;14.30;;;;;;;;;;5017387;28;20188;-87
2021/10/31 07:38:14;;;;;;;32.87;14.50;;;10.70;99.90;;;;;;5035578;28;20177;-88
2021/10/31 07:40:40;;;;;;;26.93;14.67;;;10.80;99.90;;;;;;5018005;28;20287;-86
2021/10/31 07:43:09;;;;;;;29.20;15.10;;;10.80;99.90;;;;;;5035620;28;20212;-90
2021/10/31 07:45:39;;;;;;;23.43;13.70;;;10.10;99.90;;;;;;5035453;28;20215;-88
2021/10/31 07:48:07;;;;;;;32.10;15.15;;;11.00;99.90;;;;;;5017882;28;20275;-87
2021/10/31 07:50:36;;;;;;;26.97;15.30;;;11.10;99.90;;;;;;5035417;28;20235;-88
2021/10/31 07:53:07;;;;;;;26.60;13.83;;;9.20;99.90;;;;;;5018203;28;20262;-88
2021/10/31 07:55:36;;;;;;;27.23;14.63;;;11.60;99.90;;;;;;5035188;28;20177;-88
2021/10/31 07:58:04;;;;;;;26.10;13.77;;;11.40;99.90;;;;;;5035059;28;20180;-87
2021/10/31 08:00:30;;;;;;;26.23;13.32;;;12.00;99.90;;;;;;5035529;28;20180;-88
2021/10/31 08:02:59;;;;;;;23.65;14.45;;;11.70;99.90;;;;;;5034985;28;20188;-89
2021/10/31 08:05:26;;;;;;;32.22;17.40;;;11.80;99.90;;;;;;5016399;28;20235;-89
2021/10/31 08:07:55;;;;;;;40.63;20.85;;;12.00;99.90;;;;;;5017256;28;20177;-88
2021/10/31 08:10:21;;;;;;;46.55;22.58;;;12.40;99.90;;;;;;5001247;28;20188;-88
2021/10/31 08:12:47;;;;;;;29.83;15.68;;;;;;;;;;5000699;28;20177;-89
2021/10/31 08:15:13;;;;;;;32.50;16.02;;;12.30;99.90;;;;;;5012167;28;20345;-90
2021/10/31 08:17:42;;;;;;;30.95;16.20;;;12.40;99.90;;;;;;5013117;28;20626;-89
2021/10/31 08:20:08;;;;;;;32.67;15.82;;;12.50;99.90;;;;;;5013003;28;20184;-88
2021/10/31 08:22:34;;;;;;;29.20;16.90;;;12.70;99.90;;;;;;5015404;28;20187;-88
2021/10/31 08:25:00;;;;;;;23.17;13.68;;;;;;;;;;5013388;28;20177;-89
2021/10/31 08:27:26;;;;;;;30.70;15.52;;;12.70;99.90;;;;;;4997016;28;20229;-88
2021/10/31 08:29:52;;;;;;;27.50;13.98;;;12.90;99.90;;;;;;5013249;28;20227;-87
2021/10/31 08:32:19;;;;;;;32.63;17.27;;;12.80;99.90;;;;;;5014998;28;20169;-88
2021/10/31 08:34:47;;;;;;;35.22;17.75;;;13.10;99.90;;;;;;5013642;28;20264;-89
2021/10/31 08:37:13;;;;;;;25.88;15.15;;;14.00;99.90;;;;;;5013494;28;20686;-85
2021/10/31 08:39:41;;;;;;;20.17;11.00;;;13.40;99.90;;;;;;5014215;28;20259;-85
2021/10/31 08:42:07;;;;;;;36.53;16.73;;;13.30;99.90;;;;;;4996145;28;20196;-87
2021/10/31 08:44:37;;;;;;;28.25;14.25;;;13.30;99.90;;;;;;5014078;28;20189;-86
2021/10/31 08:47:03;;;;;;;44.50;20.92;;;13.40;99.90;;;;;;5012327;28;20247;-86
2021/10/31 08:49:28;;;;;;;32.85;17.95;;;13.50;99.90;;;;;;4991368;28;20189;-86
2021/10/31 08:51:57;;;;;;;37.58;16.88;;;13.70;99.90;;;;;;5013349;28;20177;-90
2021/10/31 08:54:22;;;;;;;35.05;17.83;;;13.60;99.90;;;;;;5014606;28;20189;-88
2021/10/31 08:56:48;;;;;;;31.48;17.15;;;13.80;99.90;;;;;;4996690;28;20211;-88
2021/10/31 08:59:14;;;;;;;28.60;15.38;;;13.90;99.90;;;;;;4997031;28;20300;-87
2021/10/31 09:01:39;;;;;;;24.13;14.18;;;13.90;99.90;;;;;;4996374;28;20173;-86
2021/10/31 09:04:06;;;;;;;27.27;15.88;;;14.00;99.90;;;;;;5013986;28;20281;-87
2021/10/31 09:06:32;;;;;;;29.40;14.63;;;13.10;99.90;;;;;;5012913;28;20577;-86
2021/10/31 09:08:58;;;;;;;29.27;16.38;;;14.00;99.90;;;;;;5012505;28;20236;-86
2021/10/31 09:11:24;;;;;;;22.02;13.30;;;14.10;99.90;;;;;;5013561;28;20574;-85
2021/10/31 09:13:50;;;;;;;20.10;12.77;;;14.10;99.90;;;;;;5001633;28;20557;-87
2021/10/31 09:16:16;;;;;;;18.73;11.35;;;14.20;99.90;;;;;;5035001;28;20172;-87
2021/10/31 09:18:42;;;;;;;26.13;14.48;;;14.20;99.90;;;;;;4987612;28;20203;-88
2021/10/31 09:21:08;;;;;;;21.52;12.65;;;14.20;99.90;;;;;;5047553;28;20157;-88
2021/10/31 09:23:34;;;;;;;30.60;13.95;;;14.30;99.90;;;;;;5023586;28;20244;-87
2021/10/31 09:26:00;;;;;;;24.85;13.85;;;14.30;99.90;;;;;;5040449;28;20216;-89
2021/10/31 09:28:30;;;;;;;28.33;14.95;;;14.40;99.90;;;;;;5057832;28;20149;-88
2021/10/31 09:30:55;;;;;;;26.58;15.27;;;14.40;99.90;;;;;;5029005;28;20243;-88
2021/10/31 09:33:21;;;;;;;21.83;12.65;;;14.60;99.90;;;;;;5000045;28;20189;-88
2021/10/31 09:35:49;;;;;;;21.38;11.45;;;14.70;99.90;;;;;;5007776;28;20225;-91
2021/10/31 09:38:17;;;;;;;27.33;14.20;;;14.80;99.90;;;;;;5020725;28;20165;-89
2021/10/31 09:40:44;;;;;;;25.80;14.60;;;14.80;99.90;;;;;;5021674;28;20197;-90
2021/10/31 09:43:09;;;;;;;23.77;13.50;;;14.90;99.90;;;;;;5020063;28;20189;-90
2021/10/31 09:45:37;;;;;;;25.38;14.32;;;15.10;99.90;;;;;;5015301;28;20701;-90
2021/10/31 09:48:06;;;;;;;24.17;12.50;;;15.30;99.90;;;;;;4994315;28;20188;-90
2021/10/31 09:50:41;;;;;;;24.65;13.13;;;15.40;99.90;;;;;;5033074;28;20267;-91
2021/10/31 09:53:08;;;;;;;21.50;12.63;;;15.50;99.90;;;;;;5031197;28;20168;-91
2021/10/31 09:55:34;;;;;;;19.70;11.30;;;15.70;99.90;;;;;;4996622;28;20185;-91
2021/10/31 09:58:02;;;;;;;20.08;10.23;;;14.90;99.90;;;;;;5032721;28;20187;-88
2021/10/31 10:00:47;;;;;;;19.52;10.77;;;15.80;99.90;;;;;;5022808;28;20164;-92
2021/10/31 10:03:24;;;;;;;17.48;10.95;;;16.20;99.90;;;;;;5015152;28;20185;-88
2021/10/31 10:06:28;;;;;;;22.05;13.20;;;16.00;99.90;;;;;;5013886;28;20200;-87
2021/10/31 10:08:57;;;;;;;17.67;11.45;;;16.30;99.90;;;;;;4937875;29;20626;-92
2021/10/31 10:11:24;;;;;;;21.02;10.55;;;16.40;99.90;;;;;;5013107;28;20196;-91
2021/10/31 10:13:50;;;;;;;17.38;10.68;;;16.40;99.90;;;;;;5020204;28;20227;-90
2021/10/31 10:16:21;;;;;;;18.25;11.10;;;16.50;99.90;;;;;;5015765;28;20177;-92
2021/10/31 10:18:48;;;;;;;21.52;12.30;;;16.50;99.90;;;;;;5030950;28;20256;-89
2021/10/31 10:21:21;;;;;;;20.58;12.38;;;16.60;99.90;;;;;;5016121;28;20629;-88
2021/10/31 10:23:55;;;;;;;20.65;11.38;;;16.70;99.90;;;;;;5015586;28;20181;-88
2021/10/31 10:26:42;;;;;;;19.35;12.45;;;16.60;99.90;;;;;;5032111;28;20203;-85
2021/10/31 10:29:24;;;;;;;19.25;11.65;;;16.60;99.90;;;;;;5013347;28;20259;-88
2021/10/31 10:31:56;;;;;;;20.30;11.07;;;16.50;99.90;;;;;;5013751;28;20263;-89
2021/10/31 10:34:46;;;;;;;19.45;12.13;;;16.40;99.90;;;;;;5011409;28;20183;-89
2021/10/31 10:37:15;;;;;;;16.85;10.32;;;16.40;99.90;;;;;;5012648;28;20367;-91
2021/10/31 10:39:44;;;;;;;22.10;11.25;;;16.30;99.90;;;;;;5014057;28;20512;-90
2021/10/31 10:42:18;;;;;;;15.68;10.70;;;16.20;99.90;;;;;;5017366;28;20211;-89
2021/10/31 10:44:45;;;;;;;17.17;10.63;;;16.00;99.90;;;;;;5037187;28;20204;-86
2021/10/31 10:47:19;;;;;;;22.60;12.40;;;16.00;99.90;;;;;;5017389;28;20846;-86
2021/10/31 10:49:45;;;;;;;21.15;11.85;;;16.00;99.90;;;;;;5035766;28;20175;-86
2021/10/31 10:52:30;;;;;;;19.25;11.88;;;16.00;99.90;;;;;;5018132;28;20189;-85
2021/10/31 10:54:55;;;;;;;20.58;11.70;;;16.00;99.90;;;;;;5036552;28;20169;-87
2021/10/31 10:57:26;;;;;;;20.02;11.40;;;16.00;99.90;;;;;;5017898;28;20280;-89
2021/10/31 10:59:58;;;;;;;17.00;11.32;;;16.00;99.90;;;;;;5018598;28;20646;-87
2021/10/31 11:02:26;;;;;;;23.17;11.10;;;16.20;99.90;;;;;;5035101;28;20179;-89
2021/10/31 11:05:12;;;;;;;18.25;10.60;;;16.20;99.40;;;;;;5018442;28;20668;-88
2021/10/31 11:07:44;;;;;;;19.23;10.45;;;16.20;98.90;;;;;;5007753;28;20184;-90
2021/10/31 11:10:21;;;;;;;16.55;10.07;;;16.20;99.10;;;;;;5019534;28;20185;-88
2021/10/31 11:12:50;;;;;;;17.33;10.50;;;16.30;98.80;;;;;;5017676;28;20242;-88
2021/10/31 11:15:20;;;;;;;18.02;10.00;;;16.40;98.70;;;;;;5017473;28;20290;-88
2021/10/31 11:17:47;;;;;;;19.65;11.80;;;16.60;98.30;;;;;;5017686;28;20192;-89
2021/10/31 11:20:17;;;;;;;15.60;9.90;;;17.00;97.70;;;;;;5017517;28;20206;-88
2021/10/31 11:22:45;;;;;;;13.30;9.10;;;17.40;96.80;;;;;;5035085;28;20192;-88
2021/10/31 11:25:13;;;;;;;17.92;9.93;;;17.60;95.90;;;;;;5014961;28;20188;-87
2021/10/31 11:27:40;;;;;;;14.43;9.68;;;17.60;96.60;;;;;;5035548;28;20254;-87
2021/10/31 11:30:07;;;;;;;16.00;9.32;;;17.70;95.90;;;;;;5033935;28;20184;-88
2021/10/31 11:32:34;;;;;;;14.15;9.55;;;17.90;95.10;;;;;;5000925;28;20189;-86
2021/10/31 11:35:01;;;;;;;16.00;9.75;;;18.00;94.60;;;;;;5001175;28;20187;-87
2021/10/31 11:37:44;;;;;;;14.43;9.80;;;18.20;94.70;;;;;;5016850;28;20232;-87
2021/10/31 11:40:11;;;;;;;17.67;9.82;;;18.20;94.10;;;;;;5014176;28;20204;-86
2021/10/31 11:42:40;;;;;;;17.58;10.13;;;18.60;94.20;;;;;;5034671;28;20184;-87
2021/10/31 11:45:09;;;;;;;15.88;9.73;;;19.30;92.10;;;;;;5034527;28;20168;-86
2021/10/31 11:47:38;;;;;;;16.48;9.77;;;20.10;91.70;;;;;;5034745;28;20212;-87
2021/10/31 11:50:07;;;;;;;14.80;9.07;;;20.80;89.30;;;;;;5016933;28;20599;-86
2021/10/31 11:53:01;;;;;;;14.18;8.98;;;21.20;85.60;;;;;;5033717;28;20381;-86
2021/10/31 11:55:29;;;;;;;18.30;10.48;;;21.00;83.60;;;;;;5016175;28;20242;-87
2021/10/31 11:58:00;;;;;;;17.45;10.18;;;20.40;86.10;;;;;;5016939;28;20275;-88
2021/10/31 12:00:29;;;;;;;16.60;9.85;;;19.90;87.10;;;;;;5033644;28;20693;-87
2021/10/31 12:02:58;;;;;;;15.95;9.70;;;19.60;87.50;;;;;;4982571;28;20173;-88
2021/10/31 12:05:39;;;;;;;17.25;9.40;;;19.40;87.50;;;;;;5030614;28;20215;-88
2021/10/31 12:08:09;;;;;;;16.45;9.65;;;19.40;87.90;;;;;;5016629;28;20185;-88
2021/10/31 12:10:50;;;;;;;17.10;9.80;;;19.60;87.30;;;;;;5016823;28;20177;-87
2021/10/31 12:13:23;;;;;;;17.05;9.80;;;19.50;87.20;;;;;;4996834;28;20586;-89
2021/10/31 12:16:06;;;;;;;15.68;9.73;;;19.30;87.40;;;;;;5031730;28;20311;-87
2021/10/31 12:18:50;;;;;;;14.95;9.77;;;19.40;89.60;;;;;;5016272;28;20172;-87
2021/10/31 12:21:30;;;;;;;14.65;9.40;;;19.60;88.80;;;;;;5034229;28;20267;-87
2021/10/31 12:24:01;;;;;;;14.52;9.57;;;19.80;86.90;;;;;;5035129;28;20195;-87
2021/10/31 12:26:37;;;;;;;18.90;10.15;;;20.00;88.40;;;;;;5016656;28;20207;-86
2021/10/31 12:29:17;;;;;;;16.15;9.57;;;20.00;84.90;;;;;;5016325;28;20609;-87
2021/10/31 12:32:02;;;;;;;18.70;10.20;;;20.00;85.80;;;;;;5009754;28;20188;-86
2021/10/31 12:34:39;;;;;;;17.60;10.20;;;20.10;86.10;;;;;;5010249;28;20181;-86
2021/10/31 12:37:23;;;;;;;17.20;9.32;;;20.20;84.60;;;;;;5016158;28;20184;-87
2021/10/31 12:39:54;;;;;;;20.10;9.45;;;20.50;84.90;;;;;;5034476;28;20310;-85
2021/10/31 12:42:35;;;;;;;12.25;8.65;;;20.90;82.60;;;;;;5034125;28;20177;-85
2021/10/31 12:45:15;;;;;;;12.70;8.43;;;21.00;79.80;;;;;;5016694;28;20176;-87
2021/10/31 12:47:54;;;;;;;15.38;9.65;;;21.20;80.50;;;;;;5016401;28;20286;-85
2021/10/31 12:50:21;;;;;;;76.35;40.50;;;21.60;77.10;;;;;;5033819;28;20173;-87
2021/10/31 12:52:59;;;;;;;18.83;10.35;;;21.70;75.60;;;;;;5010523;28;20230;-86
2021/10/31 12:55:28;;;;;;;12.27;8.93;;;21.80;75.90;;;;;;5033047;28;20295;-88
2021/10/31 12:57:55;;;;;;;21.05;10.57;;;22.40;74.40;;;;;;5015252;28;20207;-88
2021/10/31 13:00:22;;;;;;;13.52;9.02;;;22.90;73.50;;;;;;5015420;28;20178;-86
2021/10/31 13:02:53;;;;;;;15.02;9.75;;;23.00;72.50;;;;;;5015398;28;20626;-86
2021/10/31 13:05:25;;;;;;;15.05;9.07;;;23.40;71.40;;;;;;5032434;28;20172;-85
2021/10/31 13:07:52;;;;;;;13.57;8.63;;;23.80;69.70;;;;;;5016141;28;20180;-86
2021/10/31 13:10:26;;;;;;;16.98;9.95;;;24.50;67.00;;;;;;5033666;28;20187;-87
2021/10/31 13:13:04;;;;;;;14.63;8.93;;;24.70;66.90;;;;;;5032850;28;20171;-86
2021/10/31 13:15:35;;;;;;;12.43;8.55;;;25.00;64.40;;;;;;5032519;28;20223;-86
2021/10/31 13:18:02;;;;;;;12.00;8.57;;;24.50;63.30;;;;;;5015393;28;20180;-87
2021/10/31 13:20:32;;;;;;;13.02;9.02;;;24.40;63.30;;;;;;5014191;28;20208;-84